sensor_id;sensor_type;location;lat;lon;timestamp;pressure;altitude;pressure_sealevel;temperature;humidity
1371;BME280;14306;49.942;11.570;2023-02-16T00:01:22;98650.00;;;1.09;91.25
1371;BME280;14306;49.942;11.570;2023-02-16T00:03:52;98645.34;;;0.92;92.05
1371;BME280;14306;49.942;11.570;2023-02-16T00:06:21;98648.66;;;0.87;91.77
1371;BME280;14306;49.942;11.570;2023-02-16T00:08:51;98643.88;;;1.02;91.27
1371;BME280;14306;49.942;11.570;2023-02-16T00:11:23;98643.13;;;0.82;92.03
1371;BME280;14306;49.942;11.570;2023-02-16T00:14:11;98638.63;;;0.83;92.67
1371;BME280;14306;49.942;11.570;2023-02-16T00:16:43;98643.97;;;0.76;91.96
1371;BME280;14306;49.942;11.570;2023-02-16T00:19:19;98641.31;;;0.76;91.94
1371;BME280;14306;49.942;11.570;2023-02-16T00:21:50;98635.81;;;1.09;91.41
1371;BME280;14306;49.942;11.570;2023-02-16T00:24:19;98641.81;;;1.04;91.23
1371;BME280;14306;49.942;11.570;2023-02-16T00:26:48;98644.38;;;0.80;91.87
1371;BME280;14306;49.942;11.570;2023-02-16T00:29:19;98642.97;;;0.77;91.84
1371;BME280;14306;49.942;11.570;2023-02-16T00:31:49;98648.75;;;0.68;92.38
1371;BME280;14306;49.942;11.570;2023-02-16T00:34:27;98636.03;;;0.63;92.86
1371;BME280;14306;49.942;11.570;2023-02-16T00:36:57;98642.78;;;0.66;92.82
1371;BME280;14306;49.942;11.570;2023-02-16T00:39:26;98633.31;;;0.83;92.15
1371;BME280;14306;49.942;11.570;2023-02-16T00:41:56;98640.41;;;0.95;91.85
1371;BME280;14306;49.942;11.570;2023-02-16T00:44:30;98643.31;;;0.87;91.37
1371;BME280;14306;49.942;11.570;2023-02-16T00:47:07;98646.25;;;0.73;91.69
1371;BME280;14306;49.942;11.570;2023-02-16T00:49:37;98646.22;;;0.79;92.57
1371;BME280;14306;49.942;11.570;2023-02-16T00:52:21;98645.66;;;0.64;92.13
1371;BME280;14306;49.942;11.570;2023-02-16T00:54:51;98646.75;;;0.50;92.39
1371;BME280;14306;49.942;11.570;2023-02-16T00:57:20;98648.94;;;0.66;91.98
1371;BME280;14306;49.942;11.570;2023-02-16T00:59:53;98632.16;;;0.59;92.68
1371;BME280;14306;49.942;11.570;2023-02-16T01:02:27;98641.81;;;0.54;92.57
1371;BME280;14306;49.942;11.570;2023-02-16T01:04:55;98646.94;;;0.55;93.33
1371;BME280;14306;49.942;11.570;2023-02-16T01:07:24;98637.31;;;0.54;93.25
1371;BME280;14306;49.942;11.570;2023-02-16T01:10:10;98645.88;;;0.69;91.78
1371;BME280;14306;49.942;11.570;2023-02-16T01:12:55;98650.31;;;0.82;92.15
1371;BME280;14306;49.942;11.570;2023-02-16T01:15:24;98634.41;;;0.62;92.16
1371;BME280;14306;49.942;11.570;2023-02-16T01:17:55;98628.28;;;0.55;92.92
1371;BME280;14306;49.942;11.570;2023-02-16T01:20:24;98627.69;;;0.47;92.98
1371;BME280;14306;49.942;11.570;2023-02-16T01:22:52;98636.28;;;0.55;93.62
1371;BME280;14306;49.942;11.570;2023-02-16T01:25:20;98629.16;;;0.36;93.29
1371;BME280;14306;49.942;11.570;2023-02-16T01:27:49;98640.41;;;0.38;93.35
1371;BME280;14306;49.942;11.570;2023-02-16T01:30:18;98625.06;;;0.34;93.92
1371;BME280;14306;49.942;11.570;2023-02-16T01:32:47;98622.16;;;0.48;93.73
1371;BME280;14306;49.942;11.570;2023-02-16T01:35:20;98619.47;;;0.55;92.78
1371;BME280;14306;49.942;11.570;2023-02-16T01:37:48;98611.69;;;0.53;92.78
1371;BME280;14306;49.942;11.570;2023-02-16T01:40:22;98615.84;;;0.36;93.17
1371;BME280;14306;49.942;11.570;2023-02-16T01:42:57;98623.16;;;0.54;92.51
1371;BME280;14306;49.942;11.570;2023-02-16T01:45:32;98618.88;;;0.53;93.07
1371;BME280;14306;49.942;11.570;2023-02-16T01:48:02;98606.56;;;0.58;93.03
1371;BME280;14306;49.942;11.570;2023-02-16T01:50:41;98615.38;;;0.52;92.11
1371;BME280;14306;49.942;11.570;2023-02-16T01:53:16;98610.28;;;0.44;92.65
1371;BME280;14306;49.942;11.570;2023-02-16T01:55:48;98606.22;;;0.35;92.54
1371;BME280;14306;49.942;11.570;2023-02-16T01:58:30;98609.22;;;0.52;92.41
1371;BME280;14306;49.942;11.570;2023-02-16T02:01:35;98614.66;;;0.76;91.89
1371;BME280;14306;49.942;11.570;2023-02-16T02:04:31;98599.75;;;0.69;91.05
1371;BME280;14306;49.942;11.570;2023-02-16T02:07:24;98592.22;;;0.53;91.92
1371;BME280;14306;49.942;11.570;2023-02-16T02:09:58;98592.69;;;0.37;92.06
1371;BME280;14306;49.942;11.570;2023-02-16T02:12:33;98584.22;;;0.53;91.32
1371;BME280;14306;49.942;11.570;2023-02-16T02:15:05;98577.00;;;0.66;91.42
1371;BME280;14306;49.942;11.570;2023-02-16T02:17:34;98583.81;;;0.56;91.58
1371;BME280;14306;49.942;11.570;2023-02-16T02:20:07;98598.19;;;0.42;91.90
1371;BME280;14306;49.942;11.570;2023-02-16T02:23:00;98579.81;;;0.21;92.49
1371;BME280;14306;49.942;11.570;2023-02-16T02:29:26;98570.94;;;0.40;92.40
1371;BME280;14306;49.942;11.570;2023-02-16T02:32:06;98577.41;;;0.63;91.55
1371;BME280;14306;49.942;11.570;2023-02-16T02:34:49;98576.78;;;0.61;91.92
1371;BME280;14306;49.942;11.570;2023-02-16T02:37:28;98576.91;;;0.29;91.59
1371;BME280;14306;49.942;11.570;2023-02-16T02:40:07;98565.72;;;0.20;93.07
1371;BME280;14306;49.942;11.570;2023-02-16T02:42:41;98571.94;;;0.45;91.89
1371;BME280;14306;49.942;11.570;2023-02-16T02:45:16;98570.94;;;0.46;91.58
1371;BME280;14306;49.942;11.570;2023-02-16T02:47:46;98519.03;;;0.04;92.54
1371;BME280;14306;49.942;11.570;2023-02-16T02:50:31;98582.19;;;0.48;91.78
1371;BME280;14306;49.942;11.570;2023-02-16T02:53:03;98574.44;;;0.40;91.66
1371;BME280;14306;49.942;11.570;2023-02-16T02:55:35;98574.06;;;0.37;92.57
1371;BME280;14306;49.942;11.570;2023-02-16T02:58:24;98571.94;;;0.45;91.94
1371;BME280;14306;49.942;11.570;2023-02-16T03:01:15;98571.38;;;0.30;92.09
1371;BME280;14306;49.942;11.570;2023-02-16T03:03:47;98569.28;;;0.45;91.60
1371;BME280;14306;49.942;11.570;2023-02-16T03:06:21;98564.38;;;0.49;91.53
1371;BME280;14306;49.942;11.570;2023-02-16T03:08:54;98552.31;;;0.40;91.66
1371;BME280;14306;49.942;11.570;2023-02-16T03:11:27;98563.44;;;0.24;92.01
1371;BME280;14306;49.942;11.570;2023-02-16T03:14:16;98557.03;;;0.38;92.46
1371;BME280;14306;49.942;11.570;2023-02-16T03:16:49;98525.66;;;-0.11;92.54
1371;BME280;14306;49.942;11.570;2023-02-16T03:19:31;98560.00;;;0.03;93.80
1371;BME280;14306;49.942;11.570;2023-02-16T03:22:18;98545.47;;;0.06;93.85
1371;BME280;14306;49.942;11.570;2023-02-16T03:25:04;98549.75;;;0.07;93.33
1371;BME280;14306;49.942;11.570;2023-02-16T03:27:50;98556.72;;;0.15;93.72
1371;BME280;14306;49.942;11.570;2023-02-16T03:30:36;98559.59;;;0.07;93.81
1371;BME280;14306;49.942;11.570;2023-02-16T03:33:06;98557.53;;;0.08;93.90
1371;BME280;14306;49.942;11.570;2023-02-16T03:35:34;98566.13;;;0.17;92.75
1371;BME280;14306;49.942;11.570;2023-02-16T03:38:04;98555.28;;;0.05;93.13
1371;BME280;14306;49.942;11.570;2023-02-16T03:40:33;98559.00;;;-0.02;93.81
1371;BME280;14306;49.942;11.570;2023-02-16T03:43:03;98561.63;;;0.04;93.30
1371;BME280;14306;49.942;11.570;2023-02-16T03:45:36;98567.00;;;-0.09;93.71
1371;BME280;14306;49.942;11.570;2023-02-16T03:48:08;98545.91;;;-0.10;94.13
1371;BME280;14306;49.942;11.570;2023-02-16T03:50:37;98549.75;;;0.07;93.58
1371;BME280;14306;49.942;11.570;2023-02-16T03:53:05;98549.47;;;0.35;92.44
1371;BME280;14306;49.942;11.570;2023-02-16T03:55:34;98550.69;;;0.39;92.24
1371;BME280;14306;49.942;11.570;2023-02-16T03:58:03;98541.59;;;0.02;92.98
1371;BME280;14306;49.942;11.570;2023-02-16T04:00:33;98553.84;;;0.09;93.53
1371;BME280;14306;49.942;11.570;2023-02-16T04:03:01;98554.66;;;0.10;93.87
1371;BME280;14306;49.942;11.570;2023-02-16T04:05:32;98540.88;;;0.26;92.94
1371;BME280;14306;49.942;11.570;2023-02-16T04:08:00;98546.44;;;0.18;92.60
1371;BME280;14306;49.942;11.570;2023-02-16T04:10:28;98543.38;;;0.21;92.15
1371;BME280;14306;49.942;11.570;2023-02-16T04:12:56;98562.19;;;0.26;92.47
1371;BME280;14306;49.942;11.570;2023-02-16T04:15:24;98560.13;;;0.35;92.28
1371;BME280;14306;49.942;11.570;2023-02-16T04:17:53;98567.53;;;0.20;92.78
1371;BME280;14306;49.942;11.570;2023-02-16T04:20:24;98561.78;;;0.29;92.18
1371;BME280;14306;49.942;11.570;2023-02-16T04:22:55;98563.34;;;0.50;91.64
1371;BME280;14306;49.942;11.570;2023-02-16T04:25:23;98563.13;;;0.51;90.76
1371;BME280;14306;49.942;11.570;2023-02-16T04:27:52;98526.25;;;0.04;91.95
1371;BME280;14306;49.942;11.570;2023-02-16T04:30:22;98571.06;;;0.00;92.69
1371;BME280;14306;49.942;11.570;2023-02-16T04:32:51;98577.03;;;0.03;93.33
1371;BME280;14306;49.942;11.570;2023-02-16T04:35:19;98573.13;;;-0.02;92.79
1371;BME280;14306;49.942;11.570;2023-02-16T04:37:48;98566.34;;;-0.04;92.75
1371;BME280;14306;49.942;11.570;2023-02-16T04:40:18;98562.69;;;0.03;92.52
1371;BME280;14306;49.942;11.570;2023-02-16T04:42:46;98585.00;;;0.03;93.64
1371;BME280;14306;49.942;11.570;2023-02-16T04:45:14;98580.69;;;0.01;93.30
1371;BME280;14306;49.942;11.570;2023-02-16T04:47:43;98575.59;;;-0.07;93.99
1371;BME280;14306;49.942;11.570;2023-02-16T04:50:12;98576.34;;;0.20;92.51
1371;BME280;14306;49.942;11.570;2023-02-16T04:52:40;98579.47;;;-0.03;92.83
1371;BME280;14306;49.942;11.570;2023-02-16T04:55:09;98573.88;;;0.25;92.54
1371;BME280;14306;49.942;11.570;2023-02-16T04:57:39;98577.19;;;0.08;93.08
1371;BME280;14306;49.942;11.570;2023-02-16T05:00:09;98580.03;;;0.13;92.55
1371;BME280;14306;49.942;11.570;2023-02-16T05:02:39;98578.66;;;0.03;93.24
1371;BME280;14306;49.942;11.570;2023-02-16T05:05:07;98579.44;;;0.17;93.11
1371;BME280;14306;49.942;11.570;2023-02-16T05:07:35;98581.47;;;0.22;92.26
1371;BME280;14306;49.942;11.570;2023-02-16T05:10:05;98584.72;;;0.37;92.26
1371;BME280;14306;49.942;11.570;2023-02-16T05:12:33;98580.22;;;0.24;92.18
1371;BME280;14306;49.942;11.570;2023-02-16T05:15:20;98584.63;;;0.56;91.45
1371;BME280;14306;49.942;11.570;2023-02-16T05:17:49;98589.53;;;0.59;90.97
1371;BME280;14306;49.942;11.570;2023-02-16T05:20:17;98576.88;;;0.48;91.28
1371;BME280;14306;49.942;11.570;2023-02-16T05:22:46;98580.34;;;0.49;90.40
1371;BME280;14306;49.942;11.570;2023-02-16T05:25:15;98586.00;;;0.72;89.66
1371;BME280;14306;49.942;11.570;2023-02-16T05:27:43;98578.44;;;0.62;90.44
1371;BME280;14306;49.942;11.570;2023-02-16T05:30:13;98590.25;;;0.29;91.62
1371;BME280;14306;49.942;11.570;2023-02-16T05:32:42;98584.91;;;0.35;91.85
1371;BME280;14306;49.942;11.570;2023-02-16T05:35:10;98588.00;;;0.32;91.15
1371;BME280;14306;49.942;11.570;2023-02-16T05:37:39;98587.81;;;0.27;91.99
1371;BME280;14306;49.942;11.570;2023-02-16T05:40:09;98585.84;;;0.54;91.75
1371;BME280;14306;49.942;11.570;2023-02-16T05:42:39;98584.25;;;0.46;91.54
1371;BME280;14306;49.942;11.570;2023-02-16T05:45:08;98582.88;;;0.31;91.15
1371;BME280;14306;49.942;11.570;2023-02-16T05:47:37;98578.59;;;0.30;92.01
1371;BME280;14306;49.942;11.570;2023-02-16T05:50:07;98575.34;;;0.01;92.55
1371;BME280;14306;49.942;11.570;2023-02-16T05:52:37;98579.19;;;0.25;92.42
1371;BME280;14306;49.942;11.570;2023-02-16T05:55:05;98583.25;;;0.41;91.77
1371;BME280;14306;49.942;11.570;2023-02-16T05:57:34;98588.50;;;0.60;90.85
1371;BME280;14306;49.942;11.570;2023-02-16T06:00:03;98580.81;;;0.39;90.07
1371;BME280;14306;49.942;11.570;2023-02-16T06:02:32;98582.16;;;-0.09;92.39
1371;BME280;14306;49.942;11.570;2023-02-16T06:05:00;98594.63;;;-0.03;92.72
1371;BME280;14306;49.942;11.570;2023-02-16T06:07:30;98587.03;;;0.00;92.92
1371;BME280;14306;49.942;11.570;2023-02-16T06:09:59;98589.75;;;-0.13;93.08
1371;BME280;14306;49.942;11.570;2023-02-16T06:12:28;98607.53;;;-0.13;93.59
1371;BME280;14306;49.942;11.570;2023-02-16T06:14:58;98601.59;;;-0.02;93.12
1371;BME280;14306;49.942;11.570;2023-02-16T06:17:26;98600.75;;;-0.03;93.43
1371;BME280;14306;49.942;11.570;2023-02-16T06:19:55;98602.81;;;0.02;93.03
1371;BME280;14306;49.942;11.570;2023-02-16T06:22:24;98595.81;;;0.27;92.15
1371;BME280;14306;49.942;11.570;2023-02-16T06:24:54;98585.63;;;-0.02;91.60
1371;BME280;14306;49.942;11.570;2023-02-16T06:27:23;98613.59;;;0.33;92.52
1371;BME280;14306;49.942;11.570;2023-02-16T06:29:51;98603.41;;;0.17;92.68
1371;BME280;14306;49.942;11.570;2023-02-16T06:32:20;98615.28;;;0.15;92.69
1371;BME280;14306;49.942;11.570;2023-02-16T06:34:49;98611.00;;;0.00;92.61
1371;BME280;14306;49.942;11.570;2023-02-16T06:37:18;98615.44;;;0.26;92.69
1371;BME280;14306;49.942;11.570;2023-02-16T06:39:48;98600.38;;;-0.13;92.58
1371;BME280;14306;49.942;11.570;2023-02-16T06:42:18;98592.38;;;0.00;93.43
1371;BME280;14306;49.942;11.570;2023-02-16T06:44:47;98598.94;;;-0.09;93.46
1371;BME280;14306;49.942;11.570;2023-02-16T06:47:16;98592.63;;;-0.21;93.75
1371;BME280;14306;49.942;11.570;2023-02-16T06:49:45;98600.19;;;-0.11;93.39
1371;BME280;14306;49.942;11.570;2023-02-16T06:52:14;98599.53;;;0.07;93.21
1371;BME280;14306;49.942;11.570;2023-02-16T06:54:43;98611.97;;;0.26;92.37
1371;BME280;14306;49.942;11.570;2023-02-16T06:57:11;98615.59;;;0.51;92.30
1371;BME280;14306;49.942;11.570;2023-02-16T06:59:41;98628.22;;;0.68;90.78
1371;BME280;14306;49.942;11.570;2023-02-16T07:02:10;98620.28;;;0.55;90.97
1371;BME280;14306;49.942;11.570;2023-02-16T07:04:39;98607.56;;;0.57;91.22
1371;BME280;14306;49.942;11.570;2023-02-16T07:07:07;98599.06;;;0.29;90.35
1371;BME280;14306;49.942;11.570;2023-02-16T07:09:37;98595.75;;;0.40;91.92
1371;BME280;14306;49.942;11.570;2023-02-16T07:12:07;98618.03;;;0.52;90.56
1371;BME280;14306;49.942;11.570;2023-02-16T07:14:37;98592.81;;;0.55;89.86
1371;BME280;14306;49.942;11.570;2023-02-16T07:17:06;98614.94;;;0.62;89.83
1371;BME280;14306;49.942;11.570;2023-02-16T07:19:35;98602.53;;;0.36;90.76
1371;BME280;14306;49.942;11.570;2023-02-16T07:22:03;98615.78;;;0.56;90.70
1371;BME280;14306;49.942;11.570;2023-02-16T07:24:32;98607.00;;;0.49;90.61
1371;BME280;14306;49.942;11.570;2023-02-16T07:27:01;98606.78;;;0.50;91.63
1371;BME280;14306;49.942;11.570;2023-02-16T07:29:31;98604.91;;;1.01;89.47
1371;BME280;14306;49.942;11.570;2023-02-16T07:31:59;98603.19;;;1.13;88.03
1371;BME280;14306;49.942;11.570;2023-02-16T07:34:30;98598.47;;;1.15;89.22
1371;BME280;14306;49.942;11.570;2023-02-16T07:36:58;98597.59;;;1.21;87.80
1371;BME280;14306;49.942;11.570;2023-02-16T07:39:27;98592.69;;;1.18;87.20
1371;BME280;14306;49.942;11.570;2023-02-16T07:41:57;98579.78;;;0.78;89.27
1371;BME280;14306;49.942;11.570;2023-02-16T07:44:25;98585.72;;;0.86;88.86
1371;BME280;14306;49.942;11.570;2023-02-16T07:46:53;98583.78;;;1.00;88.69
1371;BME280;14306;49.942;11.570;2023-02-16T07:49:22;98589.69;;;1.08;88.10
1371;BME280;14306;49.942;11.570;2023-02-16T07:51:53;98592.41;;;1.02;88.40
1371;BME280;14306;49.942;11.570;2023-02-16T07:54:21;98602.19;;;1.39;87.75
1371;BME280;14306;49.942;11.570;2023-02-16T07:56:50;98598.53;;;1.33;86.96
1371;BME280;14306;49.942;11.570;2023-02-16T07:59:19;98596.94;;;1.81;86.27
1371;BME280;14306;49.942;11.570;2023-02-16T08:01:47;98613.38;;;1.78;86.01
1371;BME280;14306;49.942;11.570;2023-02-16T08:04:20;98614.56;;;1.58;86.71
1371;BME280;14306;49.942;11.570;2023-02-16T08:06:48;98608.31;;;1.95;85.17
1371;BME280;14306;49.942;11.570;2023-02-16T08:09:18;98594.13;;;1.45;86.88
1371;BME280;14306;49.942;11.570;2023-02-16T08:11:47;98596.16;;;1.50;86.14
1371;BME280;14306;49.942;11.570;2023-02-16T08:14:15;98600.41;;;2.24;85.12
1371;BME280;14306;49.942;11.570;2023-02-16T08:16:44;98620.06;;;2.12;84.18
1371;BME280;14306;49.942;11.570;2023-02-16T08:19:17;98610.41;;;2.11;84.43
1371;BME280;14306;49.942;11.570;2023-02-16T08:21:46;98606.72;;;1.87;84.51
1371;BME280;14306;49.942;11.570;2023-02-16T08:24:19;98610.16;;;1.70;84.81
1371;BME280;14306;49.942;11.570;2023-02-16T08:26:47;98617.66;;;2.04;84.58
1371;BME280;14306;49.942;11.570;2023-02-16T08:29:17;98608.81;;;1.85;84.99
1371;BME280;14306;49.942;11.570;2023-02-16T08:31:47;98611.91;;;1.82;84.29
1371;BME280;14306;49.942;11.570;2023-02-16T08:34:18;98619.59;;;2.39;83.84
1371;BME280;14306;49.942;11.570;2023-02-16T08:36:51;98611.19;;;2.36;82.71
1371;BME280;14306;49.942;11.570;2023-02-16T08:39:25;98628.81;;;2.79;81.77
1371;BME280;14306;49.942;11.570;2023-02-16T08:41:56;98629.31;;;3.17;79.40
1371;BME280;14306;49.942;11.570;2023-02-16T08:44:26;98630.59;;;3.44;79.03
1371;BME280;14306;49.942;11.570;2023-02-16T08:46:58;98625.59;;;3.48;79.51
1371;BME280;14306;49.942;11.570;2023-02-16T08:49:27;98631.22;;;3.69;77.61
1371;BME280;14306;49.942;11.570;2023-02-16T08:51:58;98643.50;;;3.47;77.11
1371;BME280;14306;49.942;11.570;2023-02-16T08:54:29;98630.66;;;3.67;77.69
1371;BME280;14306;49.942;11.570;2023-02-16T08:57:00;98634.59;;;3.24;78.50
1371;BME280;14306;49.942;11.570;2023-02-16T08:59:30;98642.31;;;3.43;77.41
1371;BME280;14306;49.942;11.570;2023-02-16T09:01:58;98640.69;;;3.95;76.64
1371;BME280;14306;49.942;11.570;2023-02-16T09:04:27;98638.69;;;3.08;78.64
1371;BME280;14306;49.942;11.570;2023-02-16T09:06:56;98645.69;;;3.09;78.75
1371;BME280;14306;49.942;11.570;2023-02-16T09:09:25;98645.56;;;3.63;78.03
1371;BME280;14306;49.942;11.570;2023-02-16T09:11:56;98650.19;;;3.56;76.55
1371;BME280;14306;49.942;11.570;2023-02-16T09:14:24;98665.75;;;3.18;78.47
1371;BME280;14306;49.942;11.570;2023-02-16T09:16:53;98661.28;;;3.12;78.82
1371;BME280;14306;49.942;11.570;2023-02-16T09:19:22;98668.25;;;3.31;78.08
1371;BME280;14306;49.942;11.570;2023-02-16T09:21:51;98664.13;;;2.99;79.51
1371;BME280;14306;49.942;11.570;2023-02-16T09:24:22;98665.22;;;3.28;78.91
1371;BME280;14306;49.942;11.570;2023-02-16T09:26:51;98661.03;;;3.61;78.63
1371;BME280;14306;49.942;11.570;2023-02-16T09:29:21;98653.13;;;3.37;78.72
1371;BME280;14306;49.942;11.570;2023-02-16T09:31:49;98669.41;;;4.41;76.50
1371;BME280;14306;49.942;11.570;2023-02-16T09:34:20;98665.50;;;4.94;74.96
1371;BME280;14306;49.942;11.570;2023-02-16T09:36:50;98658.97;;;5.02;74.11
1371;BME280;14306;49.942;11.570;2023-02-16T09:39:19;98675.63;;;5.04;72.53
1371;BME280;14306;49.942;11.570;2023-02-16T09:42:01;98661.44;;;5.31;72.77
1371;BME280;14306;49.942;11.570;2023-02-16T09:44:38;98665.28;;;4.84;72.59
1371;BME280;14306;49.942;11.570;2023-02-16T09:47:17;98662.25;;;4.81;72.60
1371;BME280;14306;49.942;11.570;2023-02-16T09:49:48;98660.81;;;4.90;73.55
1371;BME280;14306;49.942;11.570;2023-02-16T09:52:22;98657.91;;;4.91;73.25
1371;BME280;14306;49.942;11.570;2023-02-16T09:54:54;98644.56;;;4.45;74.80
1371;BME280;14306;49.942;11.570;2023-02-16T09:57:41;98646.22;;;4.46;74.93
1371;BME280;14306;49.942;11.570;2023-02-16T10:00:25;98654.00;;;4.48;75.57
1371;BME280;14306;49.942;11.570;2023-02-16T10:03:06;98649.53;;;4.88;74.05
1371;BME280;14306;49.942;11.570;2023-02-16T10:05:44;98642.72;;;5.36;72.67
1371;BME280;14306;49.942;11.570;2023-02-16T10:08:23;98643.72;;;5.47;71.79
1371;BME280;14306;49.942;11.570;2023-02-16T10:10:59;98638.03;;;4.41;75.07
1371;BME280;14306;49.942;11.570;2023-02-16T10:13:36;98642.03;;;4.27;76.66
1371;BME280;14306;49.942;11.570;2023-02-16T10:16:14;98635.47;;;4.58;76.33
1371;BME280;14306;49.942;11.570;2023-02-16T10:18:47;98635.13;;;5.33;73.71
1371;BME280;14306;49.942;11.570;2023-02-16T10:21:22;98631.13;;;5.19;73.21
1371;BME280;14306;49.942;11.570;2023-02-16T10:23:55;98636.72;;;4.67;75.38
1371;BME280;14306;49.942;11.570;2023-02-16T10:26:30;98635.94;;;3.97;78.15
1371;BME280;14306;49.942;11.570;2023-02-16T10:29:04;98643.16;;;4.66;76.25
1371;BME280;14306;49.942;11.570;2023-02-16T10:31:38;98646.41;;;5.47;72.89
1371;BME280;14306;49.942;11.570;2023-02-16T10:34:18;98638.88;;;4.93;75.29
1371;BME280;14306;49.942;11.570;2023-02-16T10:37:06;98625.00;;;4.96;75.02
1371;BME280;14306;49.942;11.570;2023-02-16T10:39:42;98627.75;;;4.73;76.60
1371;BME280;14306;49.942;11.570;2023-02-16T10:42:18;98630.44;;;4.73;76.18
1371;BME280;14306;49.942;11.570;2023-02-16T10:44:54;98631.13;;;5.19;75.21
1371;BME280;14306;49.942;11.570;2023-02-16T10:47:39;98624.91;;;5.30;74.80
1371;BME280;14306;49.942;11.570;2023-02-16T10:50:19;98628.97;;;5.33;75.15
1371;BME280;14306;49.942;11.570;2023-02-16T10:52:50;98633.28;;;4.94;76.54
1371;BME280;14306;49.942;11.570;2023-02-16T10:55:19;98620.75;;;4.72;76.89
1371;BME280;14306;49.942;11.570;2023-02-16T10:57:52;98628.44;;;6.08;73.31
1371;BME280;14306;49.942;11.570;2023-02-16T11:00:28;98620.94;;;6.48;71.94
1371;BME280;14306;49.942;11.570;2023-02-16T11:03:03;98607.81;;;6.30;72.03
1371;BME280;14306;49.942;11.570;2023-02-16T11:05:35;98602.59;;;6.24;71.71
1371;BME280;14306;49.942;11.570;2023-02-16T11:08:05;98611.81;;;6.66;70.92
1371;BME280;14306;49.942;11.570;2023-02-16T11:10:37;98604.16;;;5.87;72.98
1371;BME280;14306;49.942;11.570;2023-02-16T11:13:09;98598.81;;;5.59;73.50
1371;BME280;14306;49.942;11.570;2023-02-16T11:15:50;98596.56;;;6.33;71.45
1371;BME280;14306;49.942;11.570;2023-02-16T11:18:33;98596.28;;;6.35;71.40
1371;BME280;14306;49.942;11.570;2023-02-16T11:21:04;98584.81;;;6.23;72.33
1371;BME280;14306;49.942;11.570;2023-02-16T11:23:34;98595.72;;;6.71;70.99
1371;BME280;14306;49.942;11.570;2023-02-16T11:26:05;98592.88;;;6.61;70.50
1371;BME280;14306;49.942;11.570;2023-02-16T11:28:36;98583.91;;;6.17;73.32
1371;BME280;14306;49.942;11.570;2023-02-16T11:31:15;98578.97;;;6.09;73.27
1371;BME280;14306;49.942;11.570;2023-02-16T11:33:58;98585.06;;;6.21;73.06
1371;BME280;14306;49.942;11.570;2023-02-16T11:36:31;98565.09;;;6.98;70.48
1371;BME280;14306;49.942;11.570;2023-02-16T11:39:02;98574.91;;;5.90;72.70
1371;BME280;14306;49.942;11.570;2023-02-16T11:41:34;98578.06;;;6.20;72.86
1371;BME280;14306;49.942;11.570;2023-02-16T11:44:03;98581.66;;;6.47;71.87
1371;BME280;14306;49.942;11.570;2023-02-16T11:46:38;98573.53;;;6.04;72.73
1371;BME280;14306;49.942;11.570;2023-02-16T11:49:31;98575.44;;;6.25;73.20
1371;BME280;14306;49.942;11.570;2023-02-16T11:52:18;98566.69;;;6.35;73.00
1371;BME280;14306;49.942;11.570;2023-02-16T11:54:47;98575.56;;;5.81;75.57
1371;BME280;14306;49.942;11.570;2023-02-16T11:57:23;98560.00;;;5.99;74.40
1371;BME280;14306;49.942;11.570;2023-02-16T11:59:54;98569.50;;;6.23;73.93
1371;BME280;14306;49.942;11.570;2023-02-16T12:02:42;98556.22;;;6.55;73.31
1371;BME280;14306;49.942;11.570;2023-02-16T12:05:24;98558.09;;;6.76;72.43
1371;BME280;14306;49.942;11.570;2023-02-16T12:08:10;98555.69;;;6.58;73.34
1371;BME280;14306;49.942;11.570;2023-02-16T12:10:57;98548.88;;;6.72;72.90
1371;BME280;14306;49.942;11.570;2023-02-16T12:13:38;98543.25;;;6.73;73.29
1371;BME280;14306;49.942;11.570;2023-02-16T12:16:21;98549.38;;;7.12;72.50
1371;BME280;14306;49.942;11.570;2023-02-16T12:19:01;98532.78;;;7.25;71.52
1371;BME280;14306;49.942;11.570;2023-02-16T12:21:40;98535.81;;;7.07;72.73
1371;BME280;14306;49.942;11.570;2023-02-16T12:24:23;98530.13;;;7.03;71.96
1371;BME280;14306;49.942;11.570;2023-02-16T12:26:57;98526.94;;;7.06;72.73
1371;BME280;14306;49.942;11.570;2023-02-16T12:29:38;98528.53;;;7.02;73.59
1371;BME280;14306;49.942;11.570;2023-02-16T12:32:24;98521.63;;;7.74;70.86
1371;BME280;14306;49.942;11.570;2023-02-16T12:35:22;98522.63;;;7.63;70.94
1371;BME280;14306;49.942;11.570;2023-02-16T12:38:00;98522.53;;;7.53;71.34
1371;BME280;14306;49.942;11.570;2023-02-16T12:40:37;98519.19;;;7.41;71.67
1371;BME280;14306;49.942;11.570;2023-02-16T12:43:26;98519.88;;;7.58;71.80
1371;BME280;14306;49.942;11.570;2023-02-16T12:46:03;98496.41;;;7.22;72.10
1371;BME280;14306;49.942;11.570;2023-02-16T12:48:40;98508.69;;;7.40;72.10
1371;BME280;14306;49.942;11.570;2023-02-16T12:51:14;98514.03;;;7.35;72.64
1371;BME280;14306;49.942;11.570;2023-02-16T12:53:51;98502.00;;;7.47;71.91
1371;BME280;14306;49.942;11.570;2023-02-16T12:56:28;98505.84;;;7.25;73.09
1371;BME280;14306;49.942;11.570;2023-02-16T12:59:14;98497.31;;;7.38;73.43
1371;BME280;14306;49.942;11.570;2023-02-16T13:01:45;98494.59;;;7.33;72.94
1371;BME280;14306;49.942;11.570;2023-02-16T13:04:19;98491.41;;;6.83;74.99
1371;BME280;14306;49.942;11.570;2023-02-16T13:06:54;98480.91;;;7.08;74.87
1371;BME280;14306;49.942;11.570;2023-02-16T13:09:34;98480.59;;;7.67;73.10
1371;BME280;14306;49.942;11.570;2023-02-16T13:12:09;98484.44;;;7.76;72.22
1371;BME280;14306;49.942;11.570;2023-02-16T13:14:44;98489.69;;;7.93;72.25
1371;BME280;14306;49.942;11.570;2023-02-16T13:17:26;98486.38;;;7.86;71.67
1371;BME280;14306;49.942;11.570;2023-02-16T13:19:57;98476.50;;;7.60;72.97
1371;BME280;14306;49.942;11.570;2023-02-16T13:23:00;98476.47;;;7.55;72.50
1371;BME280;14306;49.942;11.570;2023-02-16T13:25:55;98476.16;;;7.51;72.46
1371;BME280;14306;49.942;11.570;2023-02-16T13:28:45;98474.31;;;7.57;72.83
1371;BME280;14306;49.942;11.570;2023-02-16T13:31:28;98473.44;;;7.51;73.15
1371;BME280;14306;49.942;11.570;2023-02-16T13:34:12;98476.56;;;7.33;73.35
1371;BME280;14306;49.942;11.570;2023-02-16T13:36:58;98464.31;;;7.52;74.59
1371;BME280;14306;49.942;11.570;2023-02-16T13:39:52;98472.66;;;7.51;73.82
1371;BME280;14306;49.942;11.570;2023-02-16T13:45:29;98461.66;;;7.57;73.18
1371;BME280;14306;49.942;11.570;2023-02-16T13:47:58;98462.63;;;7.15;75.11
1371;BME280;14306;49.942;11.570;2023-02-16T13:50:30;98452.25;;;7.60;73.57